Adelanto, California
Current Conditions -  °F | °C
As of 8:55 PM on Saturday 22 Nov 2014 (Local Time) from KVCV Reporting Station
Clear Clear  
Wind Chill: 55°   Ceiling: Unl
Heat Index: 55°   Visibility: 10mi
Dew Point: 46°   Wind: 16mph
Humidity: 72%   Direction: 260°W
Pressure: 30.04"   Gusts: 20mph
Location:  34.58°N, 117.41°W
Report Text: KVCV 230455Z AUTO 26014G17KT 10SM CLR 13/08 A3004 RMK AO2
Loading
Personal Weather Stations






























Interactive Weather Map New forecast layout! Learn more

10-Day Weather Forecast

Advertisements
Track Severe Weather on mobile